PWSweather.com
Personal Weather Stations
Station Observations
WISCHPK61
Green Bay Schmitt Park, Green Bay, WI 54311

Green Bay Schmitt ParkGreen Bay, WI 54311

Lat: 44.514277, Lon: -87.935067

Elevation: 735

Station Type: Acu Rite Pro Weather Center model 02032C

http://greenbayweathercam.com

High Low Average
Temperature 45.9°F7.7°C 17.6°F-8.0°C 30.5°F-0.8°C
Dew Point 45.4°F7.4°C 17.1°F-8.3°C 30.1°F-1.1°C
Winds 3.5 mph 5.6 kmh Calm Calm Calm SSWCalm SSW
Wind Gusts 4.6 mph7.4 kmh -- --
Humidity 99% 95% 98%
Pressure 29.11 in985.8 mb 28.75 in973.6 mb -
Precipitation 0.12 in3.0 mm - -
Hour Temp Dew Point Humidity Winds Wind Gusts Pressure Precip Precip Rate Daily Precip Total
12:00 AM 18.7°F-7.4°C 17.5°F-8.1°C 95% Calm Calm -- 29.11 in985.8 mb - 0.00 in0.0 mm 0.00 in0.0 mm
01:00 AM 18.0°F-7.8°C 17.8°F-7.9°C 99% Calm Calm -- 29.09 in985.1 mb - 0.00 in0.0 mm 0.00 in0.0 mm
02:00 AM 18.0°F-7.8°C 17.8°F-7.9°C 99% Calm Calm -- 29.07 in984.4 mb - 0.00 in0.0 mm 0.00 in0.0 mm
03:00 AM 17.6°F-8.0°C 17.1°F-8.3°C 98% Calm Calm -- 29.03 in983.1 mb - 0.00 in0.0 mm 0.00 in0.0 mm
04:00 AM 19.8°F-6.8°C 18.6°F-7.4°C 95% Calm Calm -- 28.97 in981.0 mb - 0.00 in0.0 mm 0.00 in0.0 mm
05:00 AM 23.5°F-4.7°C 23.3°F-4.8°C 99% Calm Calm -- 28.96 in980.7 mb - 0.00 in0.0 mm 0.00 in0.0 mm
06:00 AM 24.8°F-4.0°C 24.6°F-4.1°C 99% Calm Calm -- 28.95 in980.4 mb - 0.00 in0.0 mm 0.00 in0.0 mm
07:00 AM 26.4°F-3.1°C 25.9°F-3.4°C 98% Calm Calm -- 28.91 in979.0 mb - 0.00 in0.0 mm 0.00 in0.0 mm
08:00 AM 28.9°F-1.7°C 28.7°F-1.8°C 99% Calm Calm -- 28.91 in979.0 mb - 0.00 in0.0 mm 0.00 in0.0 mm
09:00 AM 32.7°F0.4°C 32.5°F0.3°C 99% Calm Calm -- 28.88 in978.0 mb - 0.00 in0.0 mm 0.00 in0.0 mm
10:00 AM 36.7°F2.6°C 36.4°F2.4°C 99% Calm Calm -- 28.88 in978.0 mb - 0.00 in0.0 mm 0.00 in0.0 mm
11:00 AM 39.2°F4.0°C 38.9°F3.8°C 99% Calm Calm -- 28.86 in977.3 mb - 0.00 in0.0 mm 0.00 in0.0 mm
12:00 PM 40.8°F4.9°C 40.5°F4.7°C 99% Calm Calm -- 28.84 in976.6 mb - 0.02 in0.5 mm 0.02 in0.5 mm
01:00 PM 45.9°F7.7°C 45.4°F7.4°C 98% Calm Calm -- 28.81 in975.6 mb - 0.04 in1.0 mm 0.06 in1.5 mm
02:00 PM 42.4°F5.8°C 41.9°F5.5°C 98% Calm Calm -- 28.78 in974.6 mb - 0.03 in0.8 mm 0.09 in2.3 mm
03:00 PM 40.1°F4.5°C 39.8°F4.3°C 99% Calm Calm -- 28.76 in973.9 mb - 0.01 in0.3 mm 0.10 in2.5 mm
04:00 PM 38.5°F3.6°C 37.7°F3.2°C 97% Calm Calm -- 28.75 in973.6 mb - 0.01 in0.3 mm 0.11 in2.8 mm
05:00 PM 36.0°F2.2°C 35.5°F1.9°C 98% Calm Calm -- 28.76 in973.9 mb - 0.01 in0.3 mm 0.12 in3.0 mm
06:00 PM 33.3°F0.7°C 33.0°F0.6°C 99% Calm Calm -- 28.77 in974.3 mb - 0.00 in0.0 mm 0.12 in3.0 mm
07:00 PM 32.4°F0.2°C 32.2°F0.1°C 99% Calm Calm -- 28.76 in973.9 mb - 0.00 in0.0 mm 0.12 in3.0 mm
08:00 PM 32.2°F0.1°C 31.7°F-0.2°C 98% Calm Calm -- 28.76 in973.9 mb - 0.00 in0.0 mm 0.12 in3.0 mm
09:00 PM 30.6°F-0.8°C 30.4°F-0.9°C 99% Calm Calm -- 28.76 in973.9 mb - 0.00 in0.0 mm 0.12 in3.0 mm
10:00 PM 28.8°F-1.8°C 28.6°F-1.9°C 99% Calm Calm -- 28.77 in974.3 mb - 0.00 in0.0 mm 0.12 in3.0 mm
11:00 PM 27.3°F-2.6°C 26.8°F-2.9°C 98% 3.5 mph NW5.6 kmh NW 4.6 mph7.4 kmh 28.79 in974.9 mb - 0.00 in0.0 mm 0.12 in3.0 mm